SBHT Informações do Aeroporto

Informações da Pista
Pista 7 Comprimento 6572 ft Largura 125 ft
Elevação 0 ft Limite 0 ft Heading 0
Pista 25 Comprimento 6572 ft Largura 125 ft
Elevação 0 ft Limite 0 ft Heading 0
Frequências do Aeroporto
Tipo AFIS Nome RDO Frequência 125.85 MHZ
Navaids do Aeroporto
Tipo VOR Nome Altamira Frequência 113200 KHZ
Tipo NDB Nome Altamira Frequência 295 KHZ
Informações meteorológicas do aeroporto e NOTAM
ADDS - METARS form results

(1125 UTC 18 January 2019)
Data provider http://aviationweather.gov/metar/data/
 
METAR text: SBHT 181100Z 03001KT 9999 SCT010 OVC080 25/25 Q1013
Conditions at: SBHT (ALTAMIRA , BR) observed 1100 UTC 18 January 2019
Temperature: 25.0°C (77°F)
Dewpoint: 25.0°C (77°F) [RH = 100%]
Pressure (altimeter): 29.91 inches Hg (1013.0 mb)
Winds: from the NNE (30 degrees) at 1 MPH (1 knots; 0.5 m/s)
Visibility: 6 or more miles (10+ km)
Ceiling: 8000 feet AGL
Clouds: scattered clouds at 1000 feet AGL
overcast cloud deck at 8000 feet AGL
Weather: no significant weather observed at this time